Airfield :
LOGIN :

Register | Disclaimer

   EN    FR    IT 

 










Legend :    VFR   Marginal VFR   IFR   Intensive IFR   Very Intensive IFR
Visi :
Ceiling :
>= 8 km
>= 3000ft
5 to 8 km
1000 to 3000 ft
1500m to 5 km
500 to 1000 ft
800 to 1500m
200 to 500 ft
< 800m
< 200 ft
Symbols :   Thunderstorms  Fog  Heavy snow  Heavy precipitations  Wind > 20 kt
SIGMETs :     Misc.  Thunderstorms  Icing  Turbulence  Mountain Waves  Volcanic Ashes







- Airport Elevation : 3 ft
- IATA code : DHR


EHKD - Den Helder De Kooy

CURRENT METAR :
  • 181755Z AUTO 23009KT 6000 BR OVC006 08/07 Q1014 YLO 21012KT 6000 SCT005 BKN008 TEMPO 2000 BR FEW003 BKN005

EXPIRED METARs :
  • 181725Z AUTO 23011KT 6000 BR SCT005 BKN006 08/07 Q1014 YLO 21012KT 6000 FEW008 TEMPO 4000 BR SCT006 BKN009
  • 181711Z AUTO 24010KT 6000 BR SCT006 BKN026 OVC230 08/07 Q1014 YLO 21012KT 6000 FEW008 TEMPO 4000 BR SCT006 BKN009
  • 181707Z AUTO 24010KT 6000 BR SCT007 SCT026 BKN230 07/07 Q1014 GRN 21012KT 6000 FEW008 TEMPO 4000 BR SCT006 BKN009
  • 181655Z AUTO 23010KT 6000 BR OVC023 08/07 Q1014 WHT 21012KT 6000 FEW008 TEMPO 4000 BR SCT006 BKN009
  • 181639Z AUTO 23011KT 200V260 7000 BR BKN022 OVC240 07/07 Q1014 WHT 21012KT 6000 FEW008 TEMPO 4000 BR SCT006 BKN009
  • 181631Z AUTO 23011KT 8000 BR FEW006 OVC240 08/07 Q1014 BLU 21012KT 6000 FEW008 TEMPO 4000 BR SCT006 BKN009
  • 181625Z AUTO 23011KT 8000 BR FEW006 SCT007 OVC230 08/07 Q1014 GRN 21012KT CAVOK BECMG 22009KT 7000 SCT015 BKN025
  • 181559Z AUTO 22010KT 9000 BR FEW008 OVC230 08/07 Q1014 BLU 21012KT CAVOK BECMG 22009KT 7000 SCT015 BKN025
  • 181555Z AUTO 23010KT 9000 BR OVC230 08/07 Q1014 BLU 21012KT CAVOK
  • 181525Z AUTO 21009KT 9999 OVC230 09/08 Q1014 BLU 21012KT CAVOK

TAF TAF EHKD
Valid from the 18 at 18:00 until the 19 at 06:00 UTC


181730Z 1818/1906 23012KT 6000 SCT005 BKN008
PROB30
TEMPO 1816/1821 2000 BR FEW003 BKN005
BECMG 1818/1820 SCT015 BKN020
PROB30 1821/1902 4000 -RADZ SCT010 BKN015
BECMG 1900/1902 9999 NSW SCT020
No reported NOTAMs for that airfield.



MET'MAP, your aeronautical weather chart ! - Copyright ORBIFLY December 2007 - Disclaimer

ORBIFLY MET'MAP TEAM :

Programming & Development : Alexandra Zaïnal
Concept & Development : Baudouin d'Aumeries
Co-Development & Prog : Marc-Olivier Méhu
Technical & hardware support : Manuel Goepfert

Contact : metmap@orbifly.com




SOURCES & CREDITS :

   NOAA